Time;durP1;ratioP1;P1;durP2;ratioP2;P2;SDS_P1;SDS_P2;PMS_P1;PMS_P2;Temp;Humidity;BMP_temperature;BMP_pressure;BME280_temperature;BME280_humidity;BME280_pressure;Samples;Min_cycle;Max_cycle;Signal;HPM_P1;HPM_P2
2020/12/22 00:02:02;;;;;;;17.85;4.15;;;;;;;17.84;70.50;102037.63;4996894;28;20498;-74
2020/12/22 00:04:28;;;;;;;7.75;3.22;;;;;;;17.85;70.77;102030.50;4997034;28;20045;-74
2020/12/22 00:06:53;;;;;;;8.07;3.47;;;;;;;17.86;71.42;102037.59;4998029;28;20489;-73
2020/12/22 00:09:18;;;;;;;5.85;4.15;;;;;;;17.83;70.98;102041.19;4996403;28;20027;-74
2020/12/22 00:11:43;;;;;;;9.80;3.70;;;;;;;17.83;71.25;102043.84;5002296;28;20111;-73
2020/12/22 00:14:09;;;;;;;10.23;3.63;;;;;;;17.82;71.33;102042.06;4996885;28;20406;-74
2020/12/22 00:16:34;;;;;;;5.20;3.72;;;;;;;17.84;70.80;102056.31;4996956;28;20037;-73
2020/12/22 00:18:59;;;;;;;9.25;3.30;;;;;;;17.82;71.10;102051.84;4993388;28;20088;-73
2020/12/22 00:21:24;;;;;;;5.22;3.40;;;;;;;17.81;71.36;102052.72;4996144;28;20029;-73
2020/12/22 00:23:50;;;;;;;7.78;3.30;;;;;;;17.82;71.31;102051.84;4994192;28;20083;-73
2020/12/22 00:26:15;;;;;;;4.80;3.33;;;;;;;17.86;70.49;102048.28;4998661;28;20035;-73
2020/12/22 00:28:40;;;;;;;3.75;3.25;;;;;;;17.84;71.05;102048.31;4997946;28;20279;-73
2020/12/22 00:31:06;;;;;;;7.05;3.75;;;;;;;17.84;70.37;102044.75;4992207;28;20027;-73
2020/12/22 00:33:31;;;;;;;4.10;3.40;;;;;;;17.87;71.02;102048.31;4995362;28;20034;-73
2020/12/22 00:35:56;;;;;;;9.68;3.22;;;;;;;17.83;70.78;102049.19;4997552;28;20457;-73
2020/12/22 00:38:21;;;;;;;7.00;3.17;;;;;;;17.81;70.62;102050.03;4995212;28;20030;-73
2020/12/22 00:40:47;;;;;;;4.18;2.97;;;;;;;17.80;70.92;102051.81;4996869;28;20446;-74
2020/12/22 00:43:12;;;;;;;5.32;3.10;;;;;;;17.83;70.23;102042.94;4998473;28;20030;-73
2020/12/22 00:45:37;;;;;;;4.95;3.00;;;;;;;17.85;70.76;102043.88;5000083;28;20073;-73
2020/12/22 00:48:02;;;;;;;6.10;3.00;;;;;;;17.87;70.91;102052.75;4996476;28;20561;-74
2020/12/22 00:50:28;;;;;;;8.90;3.13;;;;;;;17.82;70.61;102044.72;4993752;28;20020;-73
2020/12/22 00:52:53;;;;;;;4.90;2.80;;;;;;;17.81;70.66;102050.03;4994111;28;20100;-73
2020/12/22 00:55:18;;;;;;;5.47;2.88;;;;;;;17.85;70.37;102044.72;4995127;28;20507;-73
2020/12/22 00:57:44;;;;;;;4.57;3.00;;;;;;;17.80;71.03;102041.13;4999096;28;20479;-74
2020/12/22 01:00:09;;;;;;;4.05;2.95;;;;;;;17.81;70.80;102039.34;4999426;28;20092;-73
2020/12/22 01:02:34;;;;;;;3.53;2.45;;;;;;;17.81;71.01;102048.28;4995614;28;20034;-73
2020/12/22 01:04:59;;;;;;;3.28;2.63;;;;;;;17.82;70.45;102035.81;4993713;28;20088;-73
2020/12/22 01:07:24;;;;;;;3.45;2.63;;;;;;;17.79;71.09;102034.00;4995902;28;20456;-73
2020/12/22 01:09:50;;;;;;;3.05;2.33;;;;;;;17.81;70.27;102039.34;4993644;28;20088;-74
2020/12/22 01:12:15;;;;;;;9.38;2.90;;;;;;;17.83;70.68;102035.81;4997629;28;20048;-74
2020/12/22 01:14:40;;;;;;;11.32;2.22;;;;;;;17.97;70.16;102030.56;4999736;28;20407;-73
2020/12/22 01:17:06;;;;;;;7.55;2.53;;;;;;;17.91;70.87;102035.88;5000772;28;20609;-72
2020/12/22 01:19:31;;;;;;;7.57;2.63;;;;;;;17.86;71.21;102041.19;4996332;28;20054;-73
2020/12/22 01:21:56;;;;;;;10.77;2.80;;;;;;;17.84;70.98;102034.06;4994775;28;20027;-73
2020/12/22 01:24:21;;;;;;;8.90;2.60;;;;;;;17.83;70.92;102027.81;5004300;28;20044;-73
2020/12/22 01:26:47;;;;;;;8.23;2.60;;;;;;;17.82;70.63;102033.13;4996232;28;20108;-73
2020/12/22 01:29:12;;;;;;;3.97;2.90;;;;;;;17.81;71.07;102028.69;4999245;28;20272;-73
2020/12/22 01:31:37;;;;;;;5.00;2.92;;;;;;;17.81;70.64;102031.34;4994859;28;20046;-73
2020/12/22 01:34:02;;;;;;;7.07;2.53;;;;;;;17.82;71.22;102031.38;4997929;28;20500;-78
2020/12/22 01:36:27;;;;;;;7.45;2.70;;;;;;;17.82;70.72;102023.34;4997980;28;20267;-73
2020/12/22 01:38:53;;;;;;;6.95;2.20;;;;;;;17.87;70.49;102034.06;4999576;28;20049;-74
2020/12/22 01:41:18;;;;;;;10.20;2.40;;;;;;;17.86;70.37;102026.91;5000327;28;20429;-74
2020/12/22 01:43:43;;;;;;;14.38;2.45;;;;;;;17.90;70.79;102026.06;4998359;28;20037;-74
2020/12/22 01:46:09;;;;;;;7.70;2.35;;;;;;;17.88;70.55;102023.38;4999570;28;20038;-74
2020/12/22 01:48:34;;;;;;;5.80;1.67;;;;;;;17.88;70.10;102026.06;5001978;28;20397;-74
2020/12/22 01:50:59;;;;;;;10.88;2.50;;;;;;;17.88;70.21;102019.81;4997880;28;20054;-75
2020/12/22 01:53:24;;;;;;;5.57;2.17;;;;;;;17.90;70.58;102018.06;4997533;28;20042;-74
2020/12/22 01:55:50;;;;;;;14.10;2.47;;;;;;;17.88;70.09;102014.47;4994890;28;20044;-74
2020/12/22 01:58:15;;;;;;;4.28;2.10;;;;;;;17.88;70.46;102010.03;5005071;28;20401;-73
2020/12/22 02:00:40;;;;;;;3.63;2.30;;;;;;;17.87;70.60;102018.91;4996564;28;20490;-74
2020/12/22 02:03:06;;;;;;;9.10;2.42;;;;;;;17.88;70.02;102022.50;4998297;28;20030;-74
2020/12/22 02:05:31;;;;;;;4.07;2.30;;;;;;;17.90;70.20;102013.59;4998652;28;20038;-74
2020/12/22 02:07:56;;;;;;;5.45;2.10;;;;;;;17.89;70.20;102011.81;5002918;28;20132;-74
2020/12/22 02:10:21;;;;;;;12.57;3.05;;;;;;;17.85;70.20;102018.00;5003365;28;20049;-74
2020/12/22 02:12:47;;;;;;;4.45;2.13;;;;;;;17.82;71.04;102017.13;5004102;28;20532;-75
2020/12/22 02:15:12;;;;;;;2.45;1.70;;;;;;;17.81;70.48;102018.00;5002836;28;20041;-74
2020/12/22 02:17:37;;;;;;;4.05;1.73;;;;;;;17.81;70.82;102012.66;5002932;28;20546;-73
2020/12/22 02:20:02;;;;;;;3.25;2.25;;;;;;;17.80;70.54;102018.88;5000596;28;20252;-74
2020/12/22 02:22:28;;;;;;;6.05;1.90;;;;;;;17.82;70.28;102017.13;4998958;28;20109;-74
2020/12/22 02:24:53;;;;;;;4.72;2.63;;;;;;;17.81;70.35;102002.84;5001022;28;20030;-73
2020/12/22 02:27:18;;;;;;;2.90;1.73;;;;;;;17.80;70.63;102013.53;5001155;28;20133;-73
2020/12/22 02:29:43;;;;;;;3.95;2.05;;;;;;;17.81;70.51;102015.31;4996565;28;20568;-74
2020/12/22 02:32:09;;;;;;;7.95;2.28;;;;;;;17.82;70.05;102014.44;4993569;28;20038;-74
2020/12/22 02:34:34;;;;;;;5.13;2.03;;;;;;;17.78;70.60;102008.19;5004741;28;20046;-74
2020/12/22 02:36:59;;;;;;;2.40;1.67;;;;;;;17.81;70.53;102018.00;5003768;28;20485;-74
2020/12/22 02:39:24;;;;;;;1.85;1.50;;;;;;;17.78;69.78;102010.88;4993933;28;20034;-74
2020/12/22 02:41:50;;;;;;;3.88;2.05;;;;;;;17.79;69.96;102006.41;4999507;28;20045;-73
2020/12/22 02:44:15;;;;;;;3.35;1.88;;;;;;;17.78;69.97;101999.28;5002198;28;20496;-74
2020/12/22 02:46:40;;;;;;;5.43;1.90;;;;;;;17.78;70.37;101993.94;4997152;28;20037;-73
2020/12/22 02:49:05;;;;;;;2.35;1.63;;;;;;;17.77;70.28;101989.47;5002761;28;20030;-73
2020/12/22 02:51:31;;;;;;;3.15;1.77;;;;;;;17.77;70.30;101994.81;5002149;28;20046;-75
2020/12/22 02:53:56;;;;;;;2.13;1.48;;;;;;;17.76;69.95;101999.28;5006715;28;20041;-74
2020/12/22 02:56:21;;;;;;;4.32;1.70;;;;;;;17.77;69.89;101989.47;5001043;28;20033;-73
2020/12/22 02:58:50;;;;;;;5.40;1.30;;;;;;;17.78;69.78;101992.19;4996025;28;20073;-75
2020/12/22 03:01:15;;;;;;;10.55;1.58;;;;;;;17.84;70.19;101984.19;4996039;28;20034;-74
2020/12/22 03:03:40;;;;;;;4.63;1.75;;;;;;;17.85;69.61;101991.28;4996867;28;20383;-73
2020/12/22 03:06:05;;;;;;;4.90;1.95;;;;;;;17.85;70.29;101993.97;4994100;28;20080;-73
2020/12/22 03:08:31;;;;;;;5.40;1.85;;;;;;;17.85;69.95;101995.78;4993969;28;20030;-73
2020/12/22 03:10:56;;;;;;;3.20;1.40;;;;;;;17.85;69.49;102003.78;4998858;28;20161;-73
2020/12/22 03:13:21;;;;;;;4.00;1.80;;;;;;;17.85;69.93;102003.78;4997958;28;20038;-73
2020/12/22 03:15:46;;;;;;;3.17;1.50;;;;;;;17.82;69.38;102010.00;4998133;28;20104;-73
2020/12/22 03:18:12;;;;;;;1.98;1.48;;;;;;;17.83;70.04;101997.53;4998351;28;20039;-73
2020/12/22 03:20:37;;;;;;;5.47;1.83;;;;;;;17.86;69.52;102002.88;4997774;28;20445;-73
2020/12/22 03:23:02;;;;;;;2.38;1.42;;;;;;;17.84;69.66;102004.66;4991283;28;20041;-73
2020/12/22 03:25:27;;;;;;;4.82;1.70;;;;;;;17.81;69.62;102000.19;4992882;28;20030;-73
2020/12/22 03:27:53;;;;;;;4.30;1.23;;;;;;;17.81;69.90;102008.19;4989602;28;20034;-74
2020/12/22 03:30:18;;;;;;;3.27;1.70;;;;;;;17.88;69.54;102010.03;5001067;28;20034;-73
2020/12/22 03:32:43;;;;;;;2.42;1.33;;;;;;;17.88;69.48;102001.13;4987817;28;20331;-73
2020/12/22 03:35:08;;;;;;;3.15;1.63;;;;;;;17.85;69.39;102004.66;4999645;28;20038;-73
2020/12/22 03:37:34;;;;;;;3.17;1.80;;;;;;;17.82;69.34;102004.66;4996920;28;20034;-72
2020/12/22 03:40:04;;;;;;;2.85;1.35;;;;;;;17.85;69.08;102009.13;5000728;28;20093;-73
2020/12/22 03:42:29;;;;;;;1.50;1.23;;;;;;;17.84;69.00;102010.91;4993795;28;20621;-72
2020/12/22 03:44:54;;;;;;;2.13;1.50;;;;;;;17.85;69.33;102020.69;4997586;28;20037;-73
2020/12/22 03:47:20;;;;;;;2.60;1.48;;;;;;;17.86;68.83;102026.91;5000866;28;20092;-73
2020/12/22 03:49:45;;;;;;;2.47;1.35;;;;;;;17.85;68.87;102019.81;4997692;28;20427;-73
2020/12/22 03:52:10;;;;;;;2.35;1.02;;;;;;;17.87;68.71;102026.03;4990852;28;20116;-73
2020/12/22 03:54:35;;;;;;;2.65;1.35;;;;;;;17.87;68.64;102026.03;4994782;28;20537;-72
2020/12/22 03:57:01;;;;;;;4.00;1.20;;;;;;;17.86;69.45;102017.13;5000226;28;20114;-73
2020/12/22 03:59:26;;;;;;;2.63;1.40;;;;;;;17.87;69.27;102023.38;5003068;28;20065;-72
2020/12/22 04:01:51;;;;;;;2.27;1.13;;;;;;;17.87;69.28;102018.91;4990539;28;20026;-72
2020/12/22 04:04:17;;;;;;;4.97;1.40;;;;;;;17.86;68.99;102021.56;5002715;28;20289;-73
2020/12/22 04:06:42;;;;;;;2.63;1.45;;;;;;;17.83;69.54;102019.81;5003313;28;20490;-73
2020/12/22 04:09:07;;;;;;;3.75;1.25;;;;;;;17.82;69.13;102026.03;5001484;28;20129;-74
2020/12/22 04:11:32;;;;;;;2.57;1.23;;;;;;;17.78;69.36;102029.56;5001971;28;20035;-73
2020/12/22 04:13:57;;;;;;;1.90;1.13;;;;;;;17.80;69.08;102024.22;4999276;28;20341;-73
2020/12/22 04:16:23;;;;;;;5.68;1.23;;;;;;;17.80;69.59;102033.13;4997216;28;20048;-72
2020/12/22 04:18:48;;;;;;;3.25;1.50;;;;;;;17.78;69.68;102028.69;4997864;28;20030;-73
2020/12/22 04:21:14;;;;;;;1.80;1.00;;;;;;;17.78;69.10;102029.56;5000159;28;20050;-74
2020/12/22 04:23:39;;;;;;;2.33;1.00;;;;;;;17.77;69.01;102022.44;5000251;28;20042;-72
2020/12/22 04:26:04;;;;;;;1.63;1.10;;;;;;;17.78;69.26;102021.56;4998700;28;20486;-72
2020/12/22 04:28:29;;;;;;;2.00;1.15;;;;;;;17.80;68.54;102024.22;4996542;28;20045;-72
2020/12/22 04:30:55;;;;;;;1.90;1.02;;;;;;;17.81;69.11;102028.69;4992953;28;20074;-72
2020/12/22 04:33:20;;;;;;;2.07;1.13;;;;;;;17.77;68.88;102027.78;4993030;28;20030;-73
2020/12/22 04:35:45;;;;;;;10.43;1.30;;;;;;;17.82;68.60;102025.13;5003244;28;20283;-73
2020/12/22 04:38:10;;;;;;;1.52;0.98;;;;;;;17.82;69.15;102027.81;4996509;28;20509;-71
2020/12/22 04:40:36;;;;;;;5.43;1.25;;;;;;;17.85;69.01;102025.16;4994182;28;20072;-72
2020/12/22 04:43:01;;;;;;;13.73;1.30;;;;;;;17.84;68.38;102031.38;4997193;28;20030;-72
2020/12/22 04:45:26;;;;;;;8.60;1.30;;;;;;;17.79;69.18;102039.34;4993092;28;20397;-74
2020/12/22 04:47:51;;;;;;;3.45;1.23;;;;;;;17.78;69.50;102042.03;4998872;28;20033;-73
2020/12/22 04:50:17;;;;;;;1.90;1.08;;;;;;;17.79;68.45;102043.78;4999342;28;20031;-73
2020/12/22 04:52:42;;;;;;;1.27;0.90;;;;;;;17.76;68.76;102034.00;4994876;28;20056;-73
2020/12/22 04:55:07;;;;;;;4.03;1.10;;;;;;;17.81;68.68;102034.91;5001010;28;20089;-73
2020/12/22 04:57:32;;;;;;;5.38;1.30;;;;;;;17.82;69.22;102035.81;4998374;28;20044;-73
2020/12/22 04:59:58;;;;;;;9.05;1.08;;;;;;;17.80;68.98;102037.56;4996098;28;20390;-72
2020/12/22 05:02:24;;;;;;;7.85;0.90;;;;;;;17.78;69.19;102044.69;4996499;28;20045;-72
2020/12/22 05:04:49;;;;;;;6.82;1.70;;;;;;;17.80;68.65;102043.81;4994860;28;20038;-72
2020/12/22 05:07:14;;;;;;;2.90;0.93;;;;;;;17.78;68.84;102052.72;4996490;28;20117;-73
2020/12/22 05:09:39;;;;;;;4.43;1.20;;;;;;;17.75;68.54;102052.69;5002751;28;20041;-73
2020/12/22 05:12:05;;;;;;;3.15;1.00;;;;;;;17.75;68.51;102055.34;4993043;28;20066;-73
2020/12/22 05:14:30;;;;;;;2.58;1.00;;;;;;;17.76;68.77;102058.03;5004087;28;20091;-73
2020/12/22 05:16:55;;;;;;;1.52;0.90;;;;;;;17.76;68.57;102057.16;5008459;28;20526;-73
2020/12/22 05:19:20;;;;;;;2.22;1.00;;;;;;;17.76;68.86;102057.16;5004881;28;20092;-72
2020/12/22 05:21:46;;;;;;;1.50;0.82;;;;;;;17.76;69.01;102055.38;4999958;28;20061;-72
2020/12/22 05:24:11;;;;;;;1.50;0.90;;;;;;;17.77;68.75;102061.59;5002232;28;20054;-74
2020/12/22 05:26:36;;;;;;;1.67;1.00;;;;;;;17.76;68.83;102059.81;5004049;28;20371;-72
2020/12/22 05:29:01;;;;;;;2.08;0.85;;;;;;;17.77;69.06;102065.19;4999003;28;20402;-72
2020/12/22 05:31:27;;;;;;;3.28;1.10;;;;;;;17.73;68.49;102060.69;4998310;28;20031;-72
2020/12/22 05:33:52;;;;;;;2.17;0.80;;;;;;;17.76;69.05;102070.50;4998388;28;20042;-72
2020/12/22 05:36:17;;;;;;;3.17;1.00;;;;;;;17.76;68.58;102068.72;5007346;28;20291;-72
2020/12/22 05:38:42;;;;;;;2.55;0.90;;;;;;;17.75;69.05;102068.72;5009185;28;20030;-73
2020/12/22 05:41:08;;;;;;;3.70;0.90;;;;;;;17.79;68.94;102073.19;4998478;28;20034;-72
2020/12/22 05:43:33;;;;;;;1.33;0.80;;;;;;;17.76;68.28;102074.06;4995341;28;20037;-72
2020/12/22 05:45:58;;;;;;;3.50;0.97;;;;;;;17.75;68.69;102074.06;4999143;28;20077;-72
2020/12/22 05:48:23;;;;;;;1.42;1.00;;;;;;;17.74;68.85;102075.81;4994285;28;20299;-71
2020/12/22 05:50:49;;;;;;;1.73;1.00;;;;;;;17.72;68.26;102077.59;5006485;28;20039;-72
2020/12/22 05:53:14;;;;;;;1.08;0.70;;;;;;;17.73;68.51;102078.47;5001870;28;20533;-72
2020/12/22 05:55:39;;;;;;;2.10;0.80;;;;;;;17.73;68.16;102082.03;4998516;28;20490;-72
2020/12/22 05:58:04;;;;;;;1.02;0.90;;;;;;;17.73;68.37;102084.72;5001082;28;20034;-71
2020/12/22 06:00:30;;;;;;;9.95;0.90;;;;;;;17.74;69.04;102080.28;5001209;28;20057;-73
2020/12/22 06:02:55;;;;;;;1.10;0.70;;;;;;;17.72;68.70;102084.72;5003644;28;20038;-73
2020/12/22 06:05:20;;;;;;;4.95;0.95;;;;;;;17.75;68.19;102092.75;5007561;28;20073;-72
2020/12/22 06:07:45;;;;;;;4.43;1.00;;;;;;;17.76;68.32;102090.09;5001374;28;20498;-72
2020/12/22 06:10:11;;;;;;;1.77;0.85;;;;;;;17.75;68.20;102096.31;4998658;28;20044;-72
2020/12/22 06:12:36;;;;;;;10.45;1.05;;;;;;;17.77;69.17;102094.56;4995952;28;20085;-72
2020/12/22 06:15:01;;;;;;;1.73;0.85;;;;;;;17.79;67.95;102091.88;5002887;28;20070;-72
2020/12/22 06:17:26;;;;;;;2.40;0.83;;;;;;;17.75;68.58;102092.75;4997504;28;20066;-71
2020/12/22 06:19:52;;;;;;;1.40;0.80;;;;;;;17.76;68.52;102092.78;4996499;28;20291;-72
2020/12/22 06:22:17;;;;;;;1.17;1.00;;;;;;;17.76;68.30;102089.19;5000709;28;21345;-71
2020/12/22 06:24:42;;;;;;;1.33;0.95;;;;;;;17.78;68.08;102099.03;4996723;28;20034;-72
2020/12/22 06:27:07;;;;;;;1.85;0.85;;;;;;;17.76;68.22;102098.13;4995363;28;20045;-72
2020/12/22 06:29:33;;;;;;;0.70;0.70;;;;;;;17.78;68.93;102107.03;5001844;28;20034;-71
2020/12/22 06:31:58;;;;;;;1.88;1.00;;;;;;;17.82;67.74;102110.63;4998272;28;20406;-72
2020/12/22 06:34:23;;;;;;;5.60;0.85;;;;;;;17.83;68.29;102109.75;4998054;28;20445;-74
2020/12/22 06:36:49;;;;;;;22.67;1.20;;;;;;;17.95;68.26;102115.16;4996383;28;20040;-72
2020/12/22 06:39:14;;;;;;;23.50;1.05;;;;;;;17.98;67.84;102112.53;4997823;28;20040;-72
2020/12/22 06:41:40;;;;;;;16.00;1.13;;;;;;;17.94;67.74;102108.03;4998886;28;20042;-72
2020/12/22 06:44:05;;;;;;;5.20;1.10;;;;;;;17.91;68.26;102122.28;5003779;28;20074;-73
2020/12/22 06:46:30;;;;;;;7.30;0.95;;;;;;;17.92;68.46;102121.38;5000620;28;20101;-71
2020/12/22 06:48:56;;;;;;;4.57;0.70;;;;;;;17.90;68.47;102127.59;4993438;28;20510;-72
2020/12/22 06:51:21;;;;;;;18.50;1.00;;;;;;;17.89;67.93;102126.72;5000723;28;20042;-72
2020/12/22 06:53:46;;;;;;;7.28;0.77;;;;;;;17.90;68.15;102119.59;4998977;28;20117;-71
2020/12/22 06:56:11;;;;;;;1.00;0.75;;;;;;;17.88;68.58;102121.34;4998991;28;20077;-72
2020/12/22 06:58:37;;;;;;;5.13;0.80;;;;;;;17.87;67.88;102124.91;4995766;28;20038;-72
2020/12/22 07:01:02;;;;;;;1.25;0.77;;;;;;;17.89;68.04;102118.69;4995974;28;20467;-73
2020/12/22 07:03:27;;;;;;;3.25;0.95;;;;;;;17.87;67.83;102123.13;4999420;28;20038;-72
2020/12/22 07:05:53;;;;;;;2.13;0.80;;;;;;;17.89;67.58;102121.38;4998044;28;20034;-72
2020/12/22 07:08:18;;;;;;;1.35;0.65;;;;;;;17.89;68.07;102123.13;4997126;28;20034;-73
2020/12/22 07:10:43;;;;;;;2.08;0.77;;;;;;;17.88;68.00;102127.59;4999874;28;20516;-73
2020/12/22 07:13:09;;;;;;;1.00;0.75;;;;;;;17.90;67.40;102130.28;4996965;28;20486;-73
2020/12/22 07:15:34;;;;;;;7.55;0.98;;;;;;;17.90;67.15;102131.19;4991954;28;20053;-72
2020/12/22 07:17:59;;;;;;;7.70;0.80;;;;;;;17.94;67.60;102140.09;4999501;28;20042;-72
2020/12/22 07:20:24;;;;;;;1.30;0.70;;;;;;;17.90;67.64;102139.19;4998697;28;20061;-73
2020/12/22 07:22:50;;;;;;;12.35;0.70;;;;;;;17.96;67.50;102129.44;4996019;28;20049;-72
2020/12/22 07:25:15;;;;;;;15.30;1.10;;;;;;;18.04;67.19;102133.94;5002219;28;20087;-72
2020/12/22 07:27:40;;;;;;;18.93;1.20;;;;;;;18.03;67.56;102140.19;4991858;28;20056;-72
2020/12/22 07:30:05;;;;;;;5.10;0.97;;;;;;;18.02;67.56;102145.50;4997666;28;20284;-71
2020/12/22 07:32:31;;;;;;;27.17;1.70;;;;;;;18.08;67.70;102135.75;4992768;28;20287;-74
2020/12/22 07:34:56;;;;;;;30.20;3.72;;;;;;;18.14;67.15;102145.59;4999363;28;20650;-71
2020/12/22 07:37:21;;;;;;;18.88;1.80;;;;;;;17.99;67.23;102138.34;4998179;28;20047;-73
2020/12/22 07:39:46;;;;;;;11.30;1.70;;;;;;;17.95;67.22;102141.00;4998471;28;20474;-73
2020/12/22 07:42:12;;;;;;;59.13;2.25;;;;;;;18.09;68.64;102139.31;5002520;28;20089;-76
2020/12/22 07:44:37;;;;;;;53.90;3.35;;;;;;;18.16;68.03;102141.16;5003224;28;20038;-72
2020/12/22 07:47:02;;;;;;;57.97;2.55;;;;;;;18.12;68.75;102129.53;4991741;28;20035;-73
2020/12/22 07:49:28;;;;;;;46.83;3.13;;;;;;;18.04;68.94;102133.94;4997493;28;20112;-74
2020/12/22 07:51:53;;;;;;;33.55;2.15;;;;;;;17.99;68.25;102141.00;4996766;28;20525;-74
2020/12/22 07:54:18;;;;;;;20.13;2.20;;;;;;;17.92;68.54;102142.75;5003434;28;20041;-73
2020/12/22 07:56:43;;;;;;;14.55;1.98;;;;;;;17.92;68.46;102144.53;5000268;28;20033;-72
2020/12/22 07:59:09;;;;;;;18.95;2.08;;;;;;;17.91;68.45;102142.75;4995461;28;20037;-71
2020/12/22 08:01:34;;;;;;;13.52;2.20;;;;;;;17.87;68.43;102135.59;4997112;28;21041;-72
2020/12/22 08:03:59;;;;;;;23.75;2.10;;;;;;;17.85;68.63;102135.56;5002228;28;20494;-72
2020/12/22 08:06:24;;;;;;;20.58;1.67;;;;;;;17.85;68.77;102143.59;5002539;28;20125;-73
2020/12/22 08:08:50;;;;;;;21.48;1.98;;;;;;;17.86;68.84;102144.47;4994753;28;20137;-73
2020/12/22 08:11:15;;;;;;;26.52;2.30;;;;;;;17.83;68.54;102140.03;4994747;28;20104;-72
2020/12/22 08:13:40;;;;;;;8.57;2.07;;;;;;;17.84;69.14;102143.59;4995532;28;20054;-73
2020/12/22 08:16:05;;;;;;;22.05;1.90;;;;;;;17.83;68.84;102136.47;4993427;28;20307;-72
2020/12/22 08:18:31;;;;;;;12.82;1.85;;;;;;;17.82;68.41;102140.91;4987934;28;20037;-72
2020/12/22 08:20:56;;;;;;;5.85;1.77;;;;;;;17.83;68.91;102144.47;4994235;28;20044;-74
2020/12/22 08:23:22;;;;;;;7.85;1.88;;;;;;;17.83;68.62;102133.78;4996485;28;20031;-73
2020/12/22 08:25:47;;;;;;;11.88;1.80;;;;;;;17.81;68.72;102144.44;4997281;28;20049;-73
2020/12/22 08:28:12;;;;;;;19.88;2.20;;;;;;;17.84;68.97;102140.91;4993413;28;20041;-71
2020/12/22 08:30:37;;;;;;;12.30;2.08;;;;;;;17.83;69.03;102132.00;4989986;28;20037;-74
2020/12/22 08:33:03;;;;;;;24.38;1.63;;;;;;;17.97;68.60;102139.25;4994914;28;20402;-74
2020/12/22 08:35:28;;;;;;;11.73;1.92;;;;;;;17.99;69.14;102143.69;4994516;28;20093;-73
2020/12/22 08:37:53;;;;;;;23.25;2.47;;;;;;;18.01;68.75;102143.72;4994019;28;20504;-72
2020/12/22 08:40:19;;;;;;;32.45;2.63;;;;;;;17.92;69.06;102145.41;4996676;28;20037;-72
2020/12/22 08:42:44;;;;;;;17.70;2.25;;;;;;;17.83;69.84;102142.69;4993568;28;20041;-72
2020/12/22 08:45:09;;;;;;;41.17;2.38;;;;;;;17.78;69.66;102139.09;4999562;28;20042;-72
2020/12/22 08:47:34;;;;;;;17.38;1.90;;;;;;;17.79;69.78;102138.19;4996030;28;20038;-73
2020/12/22 08:50:00;;;;;;;30.33;2.37;;;;;;;17.79;69.08;102137.28;5004889;28;20041;-72
2020/12/22 08:52:25;;;;;;;17.38;1.75;;;;;;;17.77;69.79;102134.63;4997848;28;20335;-72
2020/12/22 08:54:50;;;;;;;19.73;2.30;;;;;;;17.78;69.62;102127.53;4998468;28;20434;-72
2020/12/22 08:57:15;;;;;;;13.53;1.80;;;;;;;17.75;69.01;102123.03;5002093;28;20275;-71
2020/12/22 08:59:41;;;;;;;8.60;1.80;;;;;;;17.75;69.30;102127.47;5004764;28;20271;-71
2020/12/22 09:02:06;;;;;;;22.77;2.33;;;;;;;17.72;69.39;102120.31;4998950;28;20402;-72
2020/12/22 09:04:31;;;;;;;16.13;1.90;;;;;;;17.74;69.14;102118.56;5003127;28;20398;-72
2020/12/22 09:06:56;;;;;;;9.38;1.95;;;;;;;17.73;69.20;102118.53;5000816;28;20026;-71
2020/12/22 09:09:22;;;;;;;17.05;2.10;;;;;;;17.74;69.67;102117.66;4999681;28;20041;-72
2020/12/22 09:11:47;;;;;;;5.70;1.67;;;;;;;17.73;69.40;102119.44;4995940;28;20029;-72
2020/12/22 09:14:12;;;;;;;6.50;2.03;;;;;;;17.73;69.62;102110.53;4998114;28;20029;-71
2020/12/22 09:16:38;;;;;;;12.88;2.08;;;;;;;17.73;69.22;102106.09;4999705;28;20062;-72
2020/12/22 09:19:03;;;;;;;6.95;1.52;;;;;;;17.74;68.97;102115.00;5000987;28;20149;-72
2020/12/22 09:21:28;;;;;;;13.02;2.28;;;;;;;17.72;69.60;102106.09;4999381;28;20037;-71
2020/12/22 09:23:54;;;;;;;6.93;2.05;;;;;;;17.73;69.02;102110.53;5000816;28;20033;-72
2020/12/22 09:26:19;;;;;;;8.40;1.80;;;;;;;17.72;69.48;102106.97;4993049;28;20062;-72
2020/12/22 09:28:44;;;;;;;16.35;1.90;;;;;;;17.71;69.62;102101.63;4998927;28;20882;-72
2020/12/22 09:31:09;;;;;;;6.38;1.55;;;;;;;17.72;69.27;102104.28;4996574;28;20054;-71
2020/12/22 09:33:34;;;;;;;5.68;1.50;;;;;;;17.72;69.68;102096.28;5000348;28;20046;-71
2020/12/22 09:36:00;;;;;;;12.52;2.30;;;;;;;17.72;69.54;102103.44;4993981;28;20642;-72
2020/12/22 09:38:25;;;;;;;8.20;2.00;;;;;;;17.70;69.38;102092.72;4998856;28;20038;-72
2020/12/22 09:40:50;;;;;;;9.85;1.88;;;;;;;17.71;69.24;102088.28;5001097;28;20474;-71
2020/12/22 09:43:16;;;;;;;7.57;1.63;;;;;;;17.72;69.64;102087.41;4998426;28;20053;-71
2020/12/22 09:45:41;;;;;;;6.57;1.70;;;;;;;17.71;69.27;102082.94;5007447;28;20545;-71
2020/12/22 09:48:06;;;;;;;10.80;2.00;;;;;;;17.70;69.35;102073.13;4995652;28;20050;-72
2020/12/22 09:50:31;;;;;;;6.68;2.00;;;;;;;17.71;69.25;102078.50;4997625;28;20502;-71
2020/12/22 09:52:56;;;;;;;6.40;1.88;;;;;;;17.71;69.60;102066.91;4996887;28;20125;-72
2020/12/22 09:55:22;;;;;;;8.90;2.00;;;;;;;17.71;69.26;102074.94;4999178;28;20038;-72
2020/12/22 09:57:47;;;;;;;4.47;1.95;;;;;;;17.71;69.90;102066.91;4996178;28;20033;-72
2020/12/22 10:00:12;;;;;;;7.20;1.60;;;;;;;17.73;68.89;102070.47;4999562;28;20034;-72
2020/12/22 10:02:38;;;;;;;8.23;1.85;;;;;;;17.71;69.60;102070.47;5008016;28;20030;-72
2020/12/22 10:05:03;;;;;;;5.18;2.05;;;;;;;17.70;69.21;102065.13;5005452;28;20038;-72
2020/12/22 10:07:28;;;;;;;8.88;2.22;;;;;;;17.69;69.80;102049.97;5005646;28;20061;-72
2020/12/22 10:09:53;;;;;;;5.85;1.85;;;;;;;17.70;69.17;102057.09;5002640;28;20611;-71
2020/12/22 10:12:19;;;;;;;5.05;1.80;;;;;;;17.70;69.26;102063.34;4999302;28;20042;-71
2020/12/22 10:14:44;;;;;;;5.85;1.75;;;;;;;17.68;69.12;102043.72;4992693;28;20049;-72
2020/12/22 10:17:09;;;;;;;5.80;1.95;;;;;;;17.69;69.00;102047.31;5000218;28;20146;-71
2020/12/22 10:19:34;;;;;;;3.95;1.60;;;;;;;17.70;68.97;102049.09;5000867;28;20393;-71
2020/12/22 10:22:00;;;;;;;7.50;1.55;;;;;;;17.69;69.70;102048.19;4997662;28;20050;-71
2020/12/22 10:24:25;;;;;;;11.13;2.35;;;;;;;17.68;69.19;102049.06;5006779;28;20734;-72
2020/12/22 10:26:50;;;;;;;5.65;1.75;;;;;;;17.68;69.29;102054.41;4999555;28;20034;-72
2020/12/22 10:29:15;;;;;;;6.32;1.63;;;;;;;17.67;69.32;102049.94;4998991;28;20036;-72
2020/12/22 10:31:41;;;;;;;6.55;1.98;;;;;;;17.69;69.53;102055.31;5001784;28;20044;-71
2020/12/22 10:34:06;;;;;;;8.00;2.03;;;;;;;17.71;69.61;102053.56;4997339;28;20042;-72
2020/12/22 10:36:32;;;;;;;18.88;2.33;;;;;;;17.73;68.73;102051.75;4997953;28;20037;-71
2020/12/22 10:38:57;;;;;;;26.58;3.60;;;;;;;17.74;69.06;102056.22;5001380;28;20045;-73
2020/12/22 10:41:22;;;;;;;37.17;4.05;;;;;;;17.77;68.97;102049.16;5000892;28;20060;-72
2020/12/22 10:43:47;;;;;;;39.55;4.18;;;;;;;17.72;69.39;102050.88;4996897;28;20449;-73
2020/12/22 10:46:13;;;;;;;38.05;3.72;;;;;;;17.69;69.86;102053.53;4996884;28;20053;-73
2020/12/22 10:48:38;;;;;;;28.00;3.23;;;;;;;17.68;69.32;102048.19;4998412;28;20069;-75
2020/12/22 10:51:03;;;;;;;33.30;3.85;;;;;;;17.66;69.07;102053.50;5000691;28;20295;-75
2020/12/22 10:53:28;;;;;;;28.50;3.50;;;;;;;17.61;69.53;102052.59;5005750;28;20048;-74
2020/12/22 10:55:54;;;;;;;19.77;3.08;;;;;;;17.60;69.48;102052.53;5000458;28;20450;-74
2020/12/22 10:58:19;;;;;;;19.05;3.53;;;;;;;17.57;68.86;102048.06;5000560;28;20049;-75
2020/12/22 11:00:44;;;;;;;19.07;3.73;;;;;;;17.54;69.25;102038.25;5001929;28;20100;-74
2020/12/22 11:03:13;;;;;;;18.48;3.72;;;;;;;17.51;68.03;102040.91;4999977;28;20280;-76
2020/12/22 11:08:23;;;;;;;9.98;3.78;;;;;;;17.52;68.51;102028.47;4997344;28;20050;-74
2020/12/22 11:10:48;;;;;;;20.33;3.58;;;;;;;17.51;67.62;102038.25;5004467;28;20029;-74
2020/12/22 11:13:13;;;;;;;9.50;4.07;;;;;;;17.48;68.23;102032.88;4999707;28;20228;-73
2020/12/22 11:15:39;;;;;;;12.50;4.20;;;;;;;17.48;68.09;102038.22;4997460;28;20548;-74